sensor_id;sensor_type;location;lat;lon;timestamp;pressure;altitude;pressure_sealevel;temperature;humidity
4123;BME280;2075;51.062;6.920;2023-08-07T00:02:28;-9901.19;;;-144.48;100.00
4123;BME280;2075;51.062;6.920;2023-08-07T00:05:15;-10405.38;;;-144.48;100.00
4123;BME280;2075;51.062;6.920;2023-08-07T00:08:00;-10657.44;;;-144.48;100.00
4123;BME280;2075;51.062;6.920;2023-08-07T00:10:46;-10909.50;;;-144.48;100.00
4123;BME280;2075;51.062;6.920;2023-08-07T00:13:31;-9649.03;;;-144.48;100.00
4123;BME280;2075;51.062;6.920;2023-08-07T00:16:17;-10153.28;;;-144.48;100.00
4123;BME280;2075;51.062;6.920;2023-08-07T00:19:02;-11161.53;;;-144.48;100.00
4123;BME280;2075;51.062;6.920;2023-08-07T00:21:49;-11665.53;;;-144.48;100.00
4123;BME280;2075;51.062;6.920;2023-08-07T00:24:34;-11667.00;;;-144.48;100.00
4123;BME280;2075;51.062;6.920;2023-08-07T00:27:20;-11667.00;;;-144.48;100.00
4123;BME280;2075;51.062;6.920;2023-08-07T00:30:07;-11667.00;;;-144.48;100.00
4123;BME280;2075;51.062;6.920;2023-08-07T00:32:52;-11667.00;;;-144.48;100.00
4123;BME280;2075;51.062;6.920;2023-08-07T00:35:39;-11667.00;;;-144.48;100.00
4123;BME280;2075;51.062;6.920;2023-08-07T00:38:25;-11667.00;;;-144.48;100.00
4123;BME280;2075;51.062;6.920;2023-08-07T00:41:11;-11667.00;;;-144.48;100.00
4123;BME280;2075;51.062;6.920;2023-08-07T00:43:57;-11667.00;;;-144.48;100.00
4123;BME280;2075;51.062;6.920;2023-08-07T00:46:42;-11667.00;;;-144.48;100.00
4123;BME280;2075;51.062;6.920;2023-08-07T00:49:28;-11667.00;;;-144.48;100.00
4123;BME280;2075;51.062;6.920;2023-08-07T00:52:13;-11667.00;;;-144.48;100.00
4123;BME280;2075;51.062;6.920;2023-08-07T00:55:00;-11667.00;;;-144.48;100.00
4123;BME280;2075;51.062;6.920;2023-08-07T00:57:45;-11667.00;;;-144.48;100.00
4123;BME280;2075;51.062;6.920;2023-08-07T01:00:30;-11667.00;;;-144.48;100.00
4123;BME280;2075;51.062;6.920;2023-08-07T01:03:16;-11667.00;;;-144.48;100.00
4123;BME280;2075;51.062;6.920;2023-08-07T01:06:01;-11667.00;;;-144.48;100.00
4123;BME280;2075;51.062;6.920;2023-08-07T01:08:47;-11667.00;;;-144.48;100.00
4123;BME280;2075;51.062;6.920;2023-08-07T01:11:36;-11667.00;;;-144.48;100.00
4123;BME280;2075;51.062;6.920;2023-08-07T01:14:28;-11667.00;;;-144.48;100.00
4123;BME280;2075;51.062;6.920;2023-08-07T01:17:17;-11667.00;;;-144.48;100.00
4123;BME280;2075;51.062;6.920;2023-08-07T01:20:06;-11667.00;;;-144.48;100.00
4123;BME280;2075;51.062;6.920;2023-08-07T01:22:53;-11667.00;;;-144.48;100.00
4123;BME280;2075;51.062;6.920;2023-08-07T01:25:38;-11667.00;;;-144.48;100.00
4123;BME280;2075;51.062;6.920;2023-08-07T01:28:27;-11667.00;;;-144.48;100.00
4123;BME280;2075;51.062;6.920;2023-08-07T01:31:18;-11667.00;;;-144.48;100.00
4123;BME280;2075;51.062;6.920;2023-08-07T01:34:06;-11667.00;;;-144.48;100.00
4123;BME280;2075;51.062;6.920;2023-08-07T01:36:53;-11667.00;;;-144.48;100.00
4123;BME280;2075;51.062;6.920;2023-08-07T01:39:41;-11667.00;;;-144.48;100.00
4123;BME280;2075;51.062;6.920;2023-08-07T01:42:27;-11667.00;;;-144.48;100.00
4123;BME280;2075;51.062;6.920;2023-08-07T01:45:13;-11667.00;;;-144.48;100.00
4123;BME280;2075;51.062;6.920;2023-08-07T01:47:59;-11667.00;;;-144.48;100.00
4123;BME280;2075;51.062;6.920;2023-08-07T01:50:45;-11667.00;;;-144.48;100.00
4123;BME280;2075;51.062;6.920;2023-08-07T01:53:30;-11667.00;;;-144.48;100.00
4123;BME280;2075;51.062;6.920;2023-08-07T01:56:17;-11667.00;;;-144.48;100.00
4123;BME280;2075;51.062;6.920;2023-08-07T01:59:02;-11667.00;;;-144.48;100.00
4123;BME280;2075;51.062;6.920;2023-08-07T02:01:48;-11667.00;;;-144.48;100.00
4123;BME280;2075;51.062;6.920;2023-08-07T02:04:33;-11667.00;;;-144.48;100.00
4123;BME280;2075;51.062;6.920;2023-08-07T02:07:19;-11667.00;;;-144.48;100.00
4123;BME280;2075;51.062;6.920;2023-08-07T02:10:04;-11667.00;;;-144.48;100.00
4123;BME280;2075;51.062;6.920;2023-08-07T02:12:51;-11667.00;;;-144.48;100.00
4123;BME280;2075;51.062;6.920;2023-08-07T02:15:37;-11667.00;;;-144.48;100.00
4123;BME280;2075;51.062;6.920;2023-08-07T02:18:22;-11667.00;;;-144.48;100.00
4123;BME280;2075;51.062;6.920;2023-08-07T02:21:09;-11667.00;;;-144.48;100.00
4123;BME280;2075;51.062;6.920;2023-08-07T02:23:55;-11667.00;;;-144.48;100.00
4123;BME280;2075;51.062;6.920;2023-08-07T02:26:40;-11667.00;;;-144.48;100.00
4123;BME280;2075;51.062;6.920;2023-08-07T02:29:27;-11667.00;;;-144.48;100.00
4123;BME280;2075;51.062;6.920;2023-08-07T02:32:15;-11667.00;;;-144.48;100.00
4123;BME280;2075;51.062;6.920;2023-08-07T02:35:00;-11667.00;;;-144.48;100.00
4123;BME280;2075;51.062;6.920;2023-08-07T02:37:46;-11667.00;;;-144.48;100.00
4123;BME280;2075;51.062;6.920;2023-08-07T02:40:31;-11667.00;;;-144.48;100.00
4123;BME280;2075;51.062;6.920;2023-08-07T02:43:16;-11667.00;;;-144.48;100.00
4123;BME280;2075;51.062;6.920;2023-08-07T02:46:03;-11667.00;;;-144.48;100.00
4123;BME280;2075;51.062;6.920;2023-08-07T02:48:49;-11667.00;;;-144.48;100.00
4123;BME280;2075;51.062;6.920;2023-08-07T02:51:35;-11667.00;;;-144.48;100.00
4123;BME280;2075;51.062;6.920;2023-08-07T02:54:20;-11667.00;;;-144.48;100.00
4123;BME280;2075;51.062;6.920;2023-08-07T02:57:06;-11667.00;;;-144.48;100.00
4123;BME280;2075;51.062;6.920;2023-08-07T02:59:51;-11667.00;;;-144.48;100.00
4123;BME280;2075;51.062;6.920;2023-08-07T03:02:38;-11667.00;;;-144.48;100.00
4123;BME280;2075;51.062;6.920;2023-08-07T03:05:24;-11667.00;;;-144.48;100.00
4123;BME280;2075;51.062;6.920;2023-08-07T03:08:09;-11667.00;;;-144.48;100.00
4123;BME280;2075;51.062;6.920;2023-08-07T03:10:56;-11667.00;;;-144.48;100.00
4123;BME280;2075;51.062;6.920;2023-08-07T03:13:42;-11667.00;;;-144.48;100.00
4123;BME280;2075;51.062;6.920;2023-08-07T03:16:28;-11667.00;;;-144.48;100.00
4123;BME280;2075;51.062;6.920;2023-08-07T03:19:15;-11667.00;;;-144.48;100.00
4123;BME280;2075;51.062;6.920;2023-08-07T03:22:01;-11667.00;;;-144.48;100.00
4123;BME280;2075;51.062;6.920;2023-08-07T03:24:47;-11667.00;;;-144.48;100.00
4123;BME280;2075;51.062;6.920;2023-08-07T03:27:33;-11667.00;;;-144.48;100.00
4123;BME280;2075;51.062;6.920;2023-08-07T03:30:18;-11667.00;;;-144.48;100.00
4123;BME280;2075;51.062;6.920;2023-08-07T03:33:04;-11667.00;;;-144.48;100.00
4123;BME280;2075;51.062;6.920;2023-08-07T03:35:52;-11667.00;;;-144.48;100.00
4123;BME280;2075;51.062;6.920;2023-08-07T03:38:38;-11667.00;;;-144.48;100.00
4123;BME280;2075;51.062;6.920;2023-08-07T03:41:23;-11667.00;;;-144.48;100.00
4123;BME280;2075;51.062;6.920;2023-08-07T03:44:09;-11667.00;;;-144.48;100.00
4123;BME280;2075;51.062;6.920;2023-08-07T03:46:55;-11667.00;;;-144.48;100.00
4123;BME280;2075;51.062;6.920;2023-08-07T03:49:42;-11667.00;;;-144.48;100.00
4123;BME280;2075;51.062;6.920;2023-08-07T03:52:29;-11667.00;;;-144.48;100.00
4123;BME280;2075;51.062;6.920;2023-08-07T03:55:14;-11667.00;;;-144.48;100.00
4123;BME280;2075;51.062;6.920;2023-08-07T03:58:00;-11667.00;;;-144.48;100.00
4123;BME280;2075;51.062;6.920;2023-08-07T04:00:45;-11667.00;;;-144.48;100.00
4123;BME280;2075;51.062;6.920;2023-08-07T04:03:31;-11667.00;;;-144.48;100.00
4123;BME280;2075;51.062;6.920;2023-08-07T04:06:17;-11667.00;;;-144.48;100.00
4123;BME280;2075;51.062;6.920;2023-08-07T04:09:04;-11667.00;;;-144.48;100.00
4123;BME280;2075;51.062;6.920;2023-08-07T04:11:49;-11667.00;;;-144.48;100.00
4123;BME280;2075;51.062;6.920;2023-08-07T04:14:35;-11667.00;;;-144.48;100.00
4123;BME280;2075;51.062;6.920;2023-08-07T04:17:20;-11667.00;;;-144.48;100.00
4123;BME280;2075;51.062;6.920;2023-08-07T04:20:07;-11667.00;;;-144.48;100.00
4123;BME280;2075;51.062;6.920;2023-08-07T04:22:53;-11667.00;;;-144.48;100.00
4123;BME280;2075;51.062;6.920;2023-08-07T04:25:39;-11667.00;;;-144.48;100.00
4123;BME280;2075;51.062;6.920;2023-08-07T04:28:25;-11667.00;;;-144.48;100.00
4123;BME280;2075;51.062;6.920;2023-08-07T04:31:10;-11667.00;;;-144.48;100.00
4123;BME280;2075;51.062;6.920;2023-08-07T04:33:56;-11667.00;;;-144.48;100.00
4123;BME280;2075;51.062;6.920;2023-08-07T04:36:41;-11667.00;;;-144.48;100.00
4123;BME280;2075;51.062;6.920;2023-08-07T04:39:26;-11667.00;;;-144.48;100.00
4123;BME280;2075;51.062;6.920;2023-08-07T04:42:13;-11667.00;;;-144.48;100.00
4123;BME280;2075;51.062;6.920;2023-08-07T04:44:59;-11667.00;;;-144.48;100.00
4123;BME280;2075;51.062;6.920;2023-08-07T04:47:44;-11667.00;;;-144.48;100.00
4123;BME280;2075;51.062;6.920;2023-08-07T04:50:30;-11667.00;;;-144.48;100.00
4123;BME280;2075;51.062;6.920;2023-08-07T04:53:15;-11667.00;;;-144.48;100.00
4123;BME280;2075;51.062;6.920;2023-08-07T04:56:02;-11667.00;;;-144.48;100.00
4123;BME280;2075;51.062;6.920;2023-08-07T04:58:49;-11667.00;;;-144.48;100.00
4123;BME280;2075;51.062;6.920;2023-08-07T05:01:34;-11667.00;;;-144.48;100.00
4123;BME280;2075;51.062;6.920;2023-08-07T05:04:19;-11667.00;;;-144.48;100.00
4123;BME280;2075;51.062;6.920;2023-08-07T05:07:05;-11667.00;;;-144.48;100.00
4123;BME280;2075;51.062;6.920;2023-08-07T05:09:51;-11667.00;;;-144.48;100.00
4123;BME280;2075;51.062;6.920;2023-08-07T05:12:36;-11667.00;;;-144.48;100.00
4123;BME280;2075;51.062;6.920;2023-08-07T05:15:23;-11667.00;;;-144.48;100.00
4123;BME280;2075;51.062;6.920;2023-08-07T05:18:09;-11667.00;;;-144.48;100.00
4123;BME280;2075;51.062;6.920;2023-08-07T05:20:54;-11667.00;;;-144.48;100.00
4123;BME280;2075;51.062;6.920;2023-08-07T05:23:40;-11667.00;;;-144.48;100.00
4123;BME280;2075;51.062;6.920;2023-08-07T05:26:25;-11667.00;;;-144.48;100.00
4123;BME280;2075;51.062;6.920;2023-08-07T05:29:12;-11667.00;;;-144.48;100.00
4123;BME280;2075;51.062;6.920;2023-08-07T05:31:59;-11667.00;;;-144.48;100.00
4123;BME280;2075;51.062;6.920;2023-08-07T05:34:45;-11667.00;;;-144.48;100.00
4123;BME280;2075;51.062;6.920;2023-08-07T05:37:30;-11665.53;;;-144.48;100.00
4123;BME280;2075;51.062;6.920;2023-08-07T05:40:16;-10909.50;;;-144.48;100.00
4123;BME280;2075;51.062;6.920;2023-08-07T05:43:01;-10909.50;;;-144.48;100.00
4123;BME280;2075;51.062;6.920;2023-08-07T05:45:46;-10909.50;;;-144.48;100.00
4123;BME280;2075;51.062;6.920;2023-08-07T05:48:34;-9396.91;;;-144.48;100.00
4123;BME280;2075;51.062;6.920;2023-08-07T05:51:20;-7883.59;;;-144.48;100.00
4123;BME280;2075;51.062;6.920;2023-08-07T05:54:05;-6117.19;;;-144.48;100.00
4123;BME280;2075;51.062;6.920;2023-08-07T05:56:51;-5107.41;;;-144.48;100.00
4123;BME280;2075;51.062;6.920;2023-08-07T05:59:36;-5107.41;;;-144.48;100.00
4123;BME280;2075;51.062;6.920;2023-08-07T06:02:24;-8640.34;;;-144.48;100.00
4123;BME280;2075;51.062;6.920;2023-08-07T06:05:12;-10405.38;;;-144.48;100.00
4123;BME280;2075;51.062;6.920;2023-08-07T06:07:58;-11161.53;;;-144.48;100.00
4123;BME280;2075;51.062;6.920;2023-08-07T06:10:44;-11413.53;;;-144.48;100.00
4123;BME280;2075;51.062;6.920;2023-08-07T06:13:29;-11667.00;;;-144.48;100.00
4123;BME280;2075;51.062;6.920;2023-08-07T06:16:15;-11667.00;;;-144.48;100.00
4123;BME280;2075;51.062;6.920;2023-08-07T06:19:01;-11667.00;;;-144.48;100.00
4123;BME280;2075;51.062;6.920;2023-08-07T06:21:49;-11667.00;;;-144.48;100.00
4123;BME280;2075;51.062;6.920;2023-08-07T06:24:34;-11667.00;;;-144.48;100.00
4123;BME280;2075;51.062;6.920;2023-08-07T06:27:21;-11667.00;;;-144.48;100.00
4123;BME280;2075;51.062;6.920;2023-08-07T06:30:07;-11665.53;;;-144.48;100.00
4123;BME280;2075;51.062;6.920;2023-08-07T06:32:52;-11667.00;;;-144.48;100.00
4123;BME280;2075;51.062;6.920;2023-08-07T06:35:38;-11667.00;;;-144.48;100.00
4123;BME280;2075;51.062;6.920;2023-08-07T06:38:25;-11667.00;;;-144.48;100.00
4123;BME280;2075;51.062;6.920;2023-08-07T06:41:12;-11667.00;;;-144.48;100.00
4123;BME280;2075;51.062;6.920;2023-08-07T06:43:57;-11667.00;;;-144.48;100.00
4123;BME280;2075;51.062;6.920;2023-08-07T06:46:43;-11667.00;;;-144.48;100.00
4123;BME280;2075;51.062;6.920;2023-08-07T06:49:29;-11667.00;;;-144.48;100.00
4123;BME280;2075;51.062;6.920;2023-08-07T06:52:16;-11667.00;;;-144.48;100.00
4123;BME280;2075;51.062;6.920;2023-08-07T06:55:04;-11667.00;;;-144.48;100.00
4123;BME280;2075;51.062;6.920;2023-08-07T06:57:49;-11667.00;;;-144.48;100.00
4123;BME280;2075;51.062;6.920;2023-08-07T07:00:35;-11667.00;;;-144.48;100.00
4123;BME280;2075;51.062;6.920;2023-08-07T07:03:20;-11667.00;;;-144.48;100.00
4123;BME280;2075;51.062;6.920;2023-08-07T07:06:06;-11667.00;;;-144.48;100.00
4123;BME280;2075;51.062;6.920;2023-08-07T07:08:52;-11667.00;;;-144.48;100.00
4123;BME280;2075;51.062;6.920;2023-08-07T07:11:40;-11667.00;;;-144.48;100.00
4123;BME280;2075;51.062;6.920;2023-08-07T07:14:25;-11667.00;;;-144.48;100.00
4123;BME280;2075;51.062;6.920;2023-08-07T07:17:11;-11667.00;;;-144.48;100.00
4123;BME280;2075;51.062;6.920;2023-08-07T07:19:56;-11667.00;;;-144.48;100.00
4123;BME280;2075;51.062;6.920;2023-08-07T07:22:42;-11667.00;;;-144.48;100.00
4123;BME280;2075;51.062;6.920;2023-08-07T07:25:27;-11667.00;;;-144.48;100.00
4123;BME280;2075;51.062;6.920;2023-08-07T07:28:14;-11667.00;;;-144.48;100.00
4123;BME280;2075;51.062;6.920;2023-08-07T07:31:00;-11667.00;;;-144.48;100.00
4123;BME280;2075;51.062;6.920;2023-08-07T07:33:45;-11667.00;;;-144.48;100.00
4123;BME280;2075;51.062;6.920;2023-08-07T07:36:31;-11667.00;;;-144.48;100.00
4123;BME280;2075;51.062;6.920;2023-08-07T07:39:16;-11667.00;;;-144.48;100.00
4123;BME280;2075;51.062;6.920;2023-08-07T07:42:02;-11667.00;;;-144.48;100.00
4123;BME280;2075;51.062;6.920;2023-08-07T07:44:50;-11667.00;;;-144.48;100.00
4123;BME280;2075;51.062;6.920;2023-08-07T07:47:36;-11667.00;;;-144.48;100.00
4123;BME280;2075;51.062;6.920;2023-08-07T07:50:23;-11667.00;;;-144.48;100.00
4123;BME280;2075;51.062;6.920;2023-08-07T07:53:09;-11667.00;;;-144.48;100.00
4123;BME280;2075;51.062;6.920;2023-08-07T07:55:55;-11667.00;;;-144.48;100.00
4123;BME280;2075;51.062;6.920;2023-08-07T07:58:40;-11667.00;;;-144.48;100.00
4123;BME280;2075;51.062;6.920;2023-08-07T08:01:27;-11667.00;;;-144.48;100.00
4123;BME280;2075;51.062;6.920;2023-08-07T08:04:13;-11667.00;;;-144.48;100.00
4123;BME280;2075;51.062;6.920;2023-08-07T08:06:58;-11667.00;;;-144.48;100.00
4123;BME280;2075;51.062;6.920;2023-08-07T08:09:44;-11665.53;;;-144.48;100.00
4123;BME280;2075;51.062;6.920;2023-08-07T08:12:30;-11413.53;;;-144.48;100.00
4123;BME280;2075;51.062;6.920;2023-08-07T08:15:16;-11667.00;;;-144.48;100.00
4123;BME280;2075;51.062;6.920;2023-08-07T08:18:03;-11413.53;;;-144.48;100.00
4123;BME280;2075;51.062;6.920;2023-08-07T08:20:48;-9649.03;;;-144.48;100.00
4123;BME280;2075;51.062;6.920;2023-08-07T08:23:34;-7126.69;;;-144.48;100.00
4123;BME280;2075;51.062;6.920;2023-08-07T08:26:19;-5864.78;;;-144.48;100.00
4123;BME280;2075;51.062;6.920;2023-08-07T08:29:05;-5107.41;;;-144.48;100.00
4123;BME280;2075;51.062;6.920;2023-08-07T08:31:52;-7631.31;;;-144.48;100.00
4123;BME280;2075;51.062;6.920;2023-08-07T08:34:40;-5612.34;;;-144.48;100.00
4123;BME280;2075;51.062;6.920;2023-08-07T08:37:25;-7631.31;;;-144.48;100.00
4123;BME280;2075;51.062;6.920;2023-08-07T08:40:11;-9396.91;;;-144.48;100.00
4123;BME280;2075;51.062;6.920;2023-08-07T08:43:01;-10909.50;;;-144.48;100.00
4123;BME280;2075;51.062;6.920;2023-08-07T08:45:49;-10909.50;;;-144.48;100.00
4123;BME280;2075;51.062;6.920;2023-08-07T08:48:35;-8135.88;;;-144.48;100.00
4123;BME280;2075;51.062;6.920;2023-08-07T08:51:26;-306.56;;;-144.48;100.00
4123;BME280;2075;51.062;6.920;2023-08-07T08:54:12;-306.56;;;-144.48;100.00
4123;BME280;2075;51.062;6.920;2023-08-07T08:56:59;1210.94;;;-144.48;100.00
4123;BME280;2075;51.062;6.920;2023-08-07T08:59:45;1969.97;;;-144.48;100.00
4123;BME280;2075;51.062;6.920;2023-08-07T09:02:30;5767.69;;;-144.48;100.00
4123;BME280;2075;51.062;6.920;2023-08-07T09:05:17;6527.75;;;-144.48;100.00
4123;BME280;2075;51.062;6.920;2023-08-07T09:08:05;705.03;;;-144.48;100.00
4123;BME280;2075;51.062;6.920;2023-08-07T09:10:51;-3339.50;;;-144.48;100.00
4123;BME280;2075;51.062;6.920;2023-08-07T09:13:37;-6369.59;;;-144.48;100.00
4123;BME280;2075;51.062;6.920;2023-08-07T09:16:24;-11161.53;;;-144.48;100.00
4123;BME280;2075;51.062;6.920;2023-08-07T09:19:09;-10909.50;;;-144.48;100.00
4123;BME280;2075;51.062;6.920;2023-08-07T09:21:55;-10405.38;;;-144.48;100.00
4123;BME280;2075;51.062;6.920;2023-08-07T09:24:42;-6621.97;;;-144.48;100.00
4123;BME280;2075;51.062;6.920;2023-08-07T09:27:28;3488.53;;;-144.48;100.00
4123;BME280;2075;51.062;6.920;2023-08-07T09:30:13;30177.06;;;-144.48;100.00
4123;BME280;2075;51.062;6.920;2023-08-07T09:33:00;52196.44;;;-144.48;100.00
4123;BME280;2075;51.062;6.920;2023-08-07T09:35:45;79510.75;;;-144.48;100.00
4123;BME280;2075;51.062;6.920;2023-08-07T09:38:31;92646.78;;;-144.48;100.00
4123;BME280;2075;51.062;6.920;2023-08-07T09:41:18;93191.06;;;-144.48;92.29
4123;BME280;2075;51.062;6.920;2023-08-07T09:44:06;93262.16;;;-144.48;93.13
4123;BME280;2075;51.062;6.920;2023-08-07T09:46:51;93485.56;;;-144.48;93.19
4123;BME280;2075;51.062;6.920;2023-08-07T09:49:37;93298.69;;;-144.48;92.76
4123;BME280;2075;51.062;6.920;2023-08-07T09:52:25;92715.81;;;-144.48;99.36
4123;BME280;2075;51.062;6.920;2023-08-07T09:55:12;93014.38;;;-144.48;97.51
4123;BME280;2075;51.062;6.920;2023-08-07T09:58:01;93258.09;;;-144.48;94.10
4123;BME280;2075;51.062;6.920;2023-08-07T10:00:46;93333.22;;;-144.48;89.36
4123;BME280;2075;51.062;6.920;2023-08-07T10:03:32;93345.41;;;-144.48;88.02
4123;BME280;2075;51.062;6.920;2023-08-07T10:06:19;92845.81;;;-144.48;85.67
4123;BME280;2075;51.062;6.920;2023-08-07T10:09:06;93176.84;;;-144.48;83.39
4123;BME280;2075;51.062;6.920;2023-08-07T10:11:53;93217.47;;;-144.48;81.78
4123;BME280;2075;51.062;6.920;2023-08-07T10:14:41;93233.72;;;-144.48;78.91
4123;BME280;2075;51.062;6.920;2023-08-07T10:17:28;93235.75;;;-144.48;77.62
4123;BME280;2075;51.062;6.920;2023-08-07T10:20:14;93069.19;;;-144.48;73.75
4123;BME280;2075;51.062;6.920;2023-08-07T10:23:04;92977.81;;;-144.48;70.91
4123;BME280;2075;51.062;6.920;2023-08-07T10:25:51;93184.97;;;-144.48;69.60
4123;BME280;2075;51.062;6.920;2023-08-07T10:28:39;93138.25;;;-144.48;69.14
4123;BME280;2075;51.062;6.920;2023-08-07T10:31:27;93124.03;;;-144.48;68.53
4123;BME280;2075;51.062;6.920;2023-08-07T10:34:13;93107.78;;;-144.48;65.66
4123;BME280;2075;51.062;6.920;2023-08-07T10:36:59;93024.53;;;-144.48;65.80
4123;BME280;2075;51.062;6.920;2023-08-07T10:40:02;93225.59;;;-144.48;61.72
4123;BME280;2075;51.062;6.920;2023-08-07T10:42:55;93213.41;;;-144.48;62.42
4123;BME280;2075;51.062;6.920;2023-08-07T10:45:41;93044.81;;;-144.48;63.93
4123;BME280;2075;51.062;6.920;2023-08-07T10:48:29;93341.34;;;-144.48;66.11
4123;BME280;2075;51.062;6.920;2023-08-07T10:51:16;93379.94;;;-144.48;63.38
4123;BME280;2075;51.062;6.920;2023-08-07T10:54:03;93355.56;;;-144.48;58.59
4123;BME280;2075;51.062;6.920;2023-08-07T10:56:52;93243.88;;;-144.48;57.56
4123;BME280;2075;51.062;6.920;2023-08-07T10:59:38;93319.00;;;-144.48;59.98
4123;BME280;2075;51.062;6.920;2023-08-07T11:02:24;93207.31;;;-144.48;59.80
4123;BME280;2075;51.062;6.920;2023-08-07T11:05:13;93180.91;;;-144.48;58.40
4123;BME280;2075;51.062;6.920;2023-08-07T11:07:59;93189.03;;;-144.48;56.05
4123;BME280;2075;51.062;6.920;2023-08-07T11:10:45;93168.72;;;-144.48;56.49
4123;BME280;2075;51.062;6.920;2023-08-07T11:13:31;93166.69;;;-144.48;55.40
4123;BME280;2075;51.062;6.920;2023-08-07T11:16:18;93107.78;;;-144.48;54.65
4123;BME280;2075;51.062;6.920;2023-08-07T11:19:05;93241.84;;;-144.48;51.20
4123;BME280;2075;51.062;6.920;2023-08-07T11:21:53;93087.47;;;-144.48;47.81
4123;BME280;2075;51.062;6.920;2023-08-07T11:24:41;93241.84;;;-144.48;49.10
4123;BME280;2075;51.062;6.920;2023-08-07T11:27:27;93229.66;;;-144.48;51.28
4123;BME280;2075;51.062;6.920;2023-08-07T11:30:12;93641.97;;;-144.48;49.80
4123;BME280;2075;51.062;6.920;2023-08-07T11:33:00;93278.38;;;-144.48;51.12
4123;BME280;2075;51.062;6.920;2023-08-07T11:35:48;93229.66;;;-144.48;51.14
4123;BME280;2075;51.062;6.920;2023-08-07T11:38:37;93180.91;;;-144.48;48.51
4123;BME280;2075;51.062;6.920;2023-08-07T11:41:23;93231.69;;;-144.48;48.87
4123;BME280;2075;51.062;6.920;2023-08-07T11:44:08;93213.41;;;-144.48;49.79
4123;BME280;2075;51.062;6.920;2023-08-07T11:46:55;93172.78;;;-144.48;49.97
4123;BME280;2075;51.062;6.920;2023-08-07T11:49:40;93136.22;;;-144.48;48.70
4123;BME280;2075;51.062;6.920;2023-08-07T11:52:29;93132.16;;;-144.48;48.33
4123;BME280;2075;51.062;6.920;2023-08-07T11:55:18;93182.94;;;-144.48;46.77
4123;BME280;2075;51.062;6.920;2023-08-07T11:58:04;93077.31;;;-144.48;48.76
4123;BME280;2075;51.062;6.920;2023-08-07T12:00:50;93105.75;;;-144.48;48.69
4123;BME280;2075;51.062;6.920;2023-08-07T12:03:37;93036.69;;;-144.48;45.16
4123;BME280;2075;51.062;6.920;2023-08-07T12:06:24;93097.63;;;-144.48;43.73
4123;BME280;2075;51.062;6.920;2023-08-07T12:09:11;93050.91;;;-144.48;44.02
4123;BME280;2075;51.062;6.920;2023-08-07T12:11:58;93030.59;;;-144.48;43.28
4123;BME280;2075;51.062;6.920;2023-08-07T12:14:44;93022.47;;;-144.48;43.85
4123;BME280;2075;51.062;6.920;2023-08-07T12:17:31;93038.72;;;-144.48;42.92
4123;BME280;2075;51.062;6.920;2023-08-07T12:20:17;93063.09;;;-144.48;42.16
4123;BME280;2075;51.062;6.920;2023-08-07T12:23:03;93063.09;;;-144.48;41.69
4123;BME280;2075;51.062;6.920;2023-08-07T12:25:49;92949.38;;;-144.48;42.83
4123;BME280;2075;51.062;6.920;2023-08-07T12:28:38;92912.81;;;-144.48;40.24
4123;BME280;2075;51.062;6.920;2023-08-07T12:31:23;92799.09;;;-144.48;39.29
4123;BME280;2075;51.062;6.920;2023-08-07T12:34:09;92841.72;;;-144.48;38.31
4123;BME280;2075;51.062;6.920;2023-08-07T12:36:55;92892.50;;;-144.48;38.23
4123;BME280;2075;51.062;6.920;2023-08-07T12:39:40;92949.38;;;-144.48;38.65
4123;BME280;2075;51.062;6.920;2023-08-07T12:42:26;93000.16;;;-144.48;38.99
4123;BME280;2075;51.062;6.920;2023-08-07T12:45:14;93004.22;;;-144.48;40.05
4123;BME280;2075;51.062;6.920;2023-08-07T12:48:03;92916.88;;;-144.48;39.38
4123;BME280;2075;51.062;6.920;2023-08-07T12:50:49;92860.00;;;-144.48;37.57
4123;BME280;2075;51.062;6.920;2023-08-07T12:53:35;92996.09;;;-144.48;38.12
4123;BME280;2075;51.062;6.920;2023-08-07T12:56:20;93010.31;;;-144.48;38.21
4123;BME280;2075;51.062;6.920;2023-08-07T12:59:06;93067.16;;;-144.48;39.26
4123;BME280;2075;51.062;6.920;2023-08-07T13:01:54;92975.78;;;-144.48;39.83
4123;BME280;2075;51.062;6.920;2023-08-07T13:04:40;93002.19;;;-144.48;38.97
4123;BME280;2075;51.062;6.920;2023-08-07T13:07:26;92977.81;;;-144.48;39.44
4123;BME280;2075;51.062;6.920;2023-08-07T13:10:14;92961.56;;;-144.48;39.08
4123;BME280;2075;51.062;6.920;2023-08-07T13:13:00;92981.88;;;-144.48;38.60
4123;BME280;2075;51.062;6.920;2023-08-07T13:15:45;92918.91;;;-144.48;37.26
4123;BME280;2075;51.062;6.920;2023-08-07T13:18:33;92949.38;;;-144.48;36.82
4123;BME280;2075;51.062;6.920;2023-08-07T13:21:18;92987.97;;;-144.48;36.78
4123;BME280;2075;51.062;6.920;2023-08-07T13:24:04;92943.28;;;-144.48;36.81
4123;BME280;2075;51.062;6.920;2023-08-07T13:26:50;92746.28;;;-144.48;37.30
4123;BME280;2075;51.062;6.920;2023-08-07T13:29:35;92902.66;;;-144.48;38.01
4123;BME280;2075;51.062;6.920;2023-08-07T13:32:21;92882.34;;;-144.48;38.34
4123;BME280;2075;51.062;6.920;2023-08-07T13:35:09;92937.19;;;-144.48;37.13
4123;BME280;2075;51.062;6.920;2023-08-07T13:37:54;92963.59;;;-144.48;37.38
4123;BME280;2075;51.062;6.920;2023-08-07T13:40:40;92855.94;;;-144.48;37.40
4123;BME280;2075;51.062;6.920;2023-08-07T13:43:25;92937.19;;;-144.48;36.51
4123;BME280;2075;51.062;6.920;2023-08-07T13:46:11;92790.97;;;-144.48;37.42
4123;BME280;2075;51.062;6.920;2023-08-07T13:48:57;93067.16;;;-144.48;38.38
4123;BME280;2075;51.062;6.920;2023-08-07T13:51:44;93103.72;;;-144.48;39.19
4123;BME280;2075;51.062;6.920;2023-08-07T13:54:29;93101.69;;;-144.48;39.07
4123;BME280;2075;51.062;6.920;2023-08-07T13:57:15;93136.22;;;-144.48;39.24
4123;BME280;2075;51.062;6.920;2023-08-07T14:00:02;93093.56;;;-144.48;40.18
4123;BME280;2075;51.062;6.920;2023-08-07T14:02:49;93077.31;;;-144.48;40.93
4123;BME280;2075;51.062;6.920;2023-08-07T14:05:34;93126.06;;;-144.48;41.10
4123;BME280;2075;51.062;6.920;2023-08-07T14:08:23;93054.97;;;-144.48;41.09
4123;BME280;2075;51.062;6.920;2023-08-07T14:11:09;93107.78;;;-144.48;41.04
4123;BME280;2075;51.062;6.920;2023-08-07T14:13:58;93073.25;;;-144.48;40.96
4123;BME280;2075;51.062;6.920;2023-08-07T14:16:44;93152.47;;;-144.48;41.03
4123;BME280;2075;51.062;6.920;2023-08-07T14:19:30;93229.66;;;-144.48;41.61
4123;BME280;2075;51.062;6.920;2023-08-07T14:22:15;93040.75;;;-144.48;42.16
4123;BME280;2075;51.062;6.920;2023-08-07T14:25:04;93042.78;;;-144.48;43.24
4123;BME280;2075;51.062;6.920;2023-08-07T14:27:50;93018.41;;;-144.48;43.66